Time;durP1;ratioP1;P1;durP2;ratioP2;P2;SDS_P1;SDS_P2;PMS_P1;PMS_P2;Temp;Humidity;BMP_temperature;BMP_pressure;BME280_temperature;BME280_humidity;BME280_pressure;Samples;Min_cycle;Max_cycle;Signal;HPM_P1;HPM_P2
2022/11/19 00:01:48;;;;;;;;;;;21.40;43.40;;;;;;485783;246;1320;-41
2022/11/19 00:03:50;;;;;;;;;;;21.40;43.40;;;;;;485318;246;1254;-44
2022/11/19 00:05:51;;;;;;;;;;;21.40;43.50;;;;;;485666;246;2151;-41
2022/11/19 00:07:53;;;;;;;;;;;21.40;43.50;;;;;;485757;246;1253;-44
2022/11/19 00:09:56;;;;;;;;;;;21.40;43.50;;;;;;485779;246;1186;-44
2022/11/19 00:14:15;;;;;;;;;;;21.40;43.50;;;;;;485238;246;2389;-44
2022/11/19 00:16:16;;;;;;;;;;;21.40;43.50;;;;;;485739;246;1394;-44
2022/11/19 00:18:18;;;;;;;;;;;21.40;43.50;;;;;;485284;246;1224;-41
2022/11/19 00:20:19;;;;;;;;;;;21.40;43.40;;;;;;485321;246;1317;-43
2022/11/19 00:22:20;;;;;;;;;;;21.40;43.50;;;;;;485408;246;1353;-43
2022/11/19 00:24:22;;;;;;;;;;;21.40;43.50;;;;;;485328;246;1467;-44
2022/11/19 00:26:23;;;;;;;;;;;21.40;43.50;;;;;;485772;246;2171;-44
2022/11/19 00:28:26;;;;;;;;;;;21.40;43.40;;;;;;485669;246;1250;-44
2022/11/19 00:30:27;;;;;;;;;;;21.40;43.40;;;;;;485312;246;1242;-42
2022/11/19 00:32:29;;;;;;;;;;;21.40;43.40;;;;;;485488;246;1117;-44
2022/11/19 00:34:31;;;;;;;;;;;21.40;43.50;;;;;;485652;246;1349;-40
2022/11/19 00:36:32;;;;;;;;;;;21.40;43.50;;;;;;485442;246;1107;-44
2022/11/19 00:38:33;;;;;;;;;;;21.40;43.40;;;;;;485548;246;1187;-44
2022/11/19 00:40:35;;;;;;;;;;;21.40;43.40;;;;;;485647;246;1221;-44
2022/11/19 00:42:36;;;;;;;;;;;21.40;43.40;;;;;;485339;246;1341;-44
2022/11/19 00:44:37;;;;;;;;;;;21.40;43.40;;;;;;485424;246;1248;-44
2022/11/19 00:46:39;;;;;;;;;;;21.40;43.40;;;;;;485316;246;2207;-45
2022/11/19 00:48:40;;;;;;;;;;;21.40;43.40;;;;;;485310;246;1552;-45
2022/11/19 00:50:41;;;;;;;;;;;21.40;43.40;;;;;;485844;246;1255;-44
2022/11/19 00:52:43;;;;;;;;;;;21.30;43.40;;;;;;485657;246;1210;-44
2022/11/19 00:54:45;;;;;;;;;;;21.30;43.50;;;;;;485538;246;1212;-44
2022/11/19 00:56:46;;;;;;;;;;;21.30;43.50;;;;;;485298;246;1314;-44
2022/11/19 00:58:47;;;;;;;;;;;21.40;43.50;;;;;;485302;246;1506;-44
2022/11/19 01:00:50;;;;;;;;;;;21.40;43.50;;;;;;485333;246;1308;-43
2022/11/19 01:02:50;;;;;;;;;;;21.40;43.50;;;;;;485238;246;1925;-44
2022/11/19 01:04:51;;;;;;;;;;;21.40;43.50;;;;;;485401;246;2083;-44
2022/11/19 01:06:53;;;;;;;;;;;21.40;43.50;;;;;;485223;246;2160;-44
2022/11/19 01:08:54;;;;;;;;;;;21.30;43.50;;;;;;485418;246;2832;-44
2022/11/19 01:10:55;;;;;;;;;;;21.30;43.50;;;;;;485264;246;1236;-45
2022/11/19 01:15:16;;;;;;;;;;;21.30;43.50;;;;;;485492;246;1569;-44
2022/11/19 01:17:18;;;;;;;;;;;21.30;43.50;;;;;;485714;246;1383;-44
2022/11/19 01:19:19;;;;;;;;;;;21.30;43.50;;;;;;485448;246;1249;-41
2022/11/19 01:21:20;;;;;;;;;;;21.30;43.60;;;;;;485685;246;1288;-45
2022/11/19 01:23:22;;;;;;;;;;;21.30;43.50;;;;;;485323;246;1240;-44
2022/11/19 01:25:23;;;;;;;;;;;21.30;43.50;;;;;;485384;246;1767;-44
2022/11/19 01:27:24;;;;;;;;;;;21.30;43.50;;;;;;485476;246;2187;-43
2022/11/19 01:29:26;;;;;;;;;;;21.30;43.50;;;;;;485442;246;1746;-44
2022/11/19 01:31:27;;;;;;;;;;;21.30;43.50;;;;;;485241;246;1343;-44
2022/11/19 01:33:28;;;;;;;;;;;21.30;43.50;;;;;;485243;246;1273;-41
2022/11/19 01:35:32;;;;;;;;;;;21.40;43.60;;;;;;485178;242;1361;-44
2022/11/19 01:37:33;;;;;;;;;;;21.30;43.50;;;;;;485466;245;1468;-44
2022/11/19 01:39:34;;;;;;;;;;;21.30;43.50;;;;;;485317;246;2018;-44
2022/11/19 01:41:35;;;;;;;;;;;21.30;43.60;;;;;;485242;246;1333;-43
2022/11/19 01:43:37;;;;;;;;;;;21.30;43.60;;;;;;485179;246;2227;-44
2022/11/19 01:45:38;;;;;;;;;;;21.30;43.60;;;;;;485184;246;1317;-42
2022/11/19 01:47:39;;;;;;;;;;;21.30;43.60;;;;;;485240;246;2203;-44
2022/11/19 01:49:41;;;;;;;;;;;21.30;43.60;;;;;;485273;246;1576;-44
2022/11/19 01:51:43;;;;;;;;;;;21.30;43.60;;;;;;485550;246;1306;-44
2022/11/19 01:53:45;;;;;;;;;;;21.30;43.60;;;;;;485163;246;1538;-41
2022/11/19 01:55:46;;;;;;;;;;;21.30;43.60;;;;;;485154;246;2206;-42
2022/11/19 01:57:47;;;;;;;;;;;21.30;43.60;;;;;;485407;246;1690;-45
2022/11/19 01:59:49;;;;;;;;;;;21.30;43.60;;;;;;485269;246;1346;-42
2022/11/19 02:01:50;;;;;;;;;;;21.30;43.60;;;;;;485413;246;1445;-40
2022/11/19 02:03:52;;;;;;;;;;;21.30;43.60;;;;;;485623;246;1515;-43
2022/11/19 02:05:53;;;;;;;;;;;21.30;43.60;;;;;;485632;242;1315;-43
2022/11/19 02:07:54;;;;;;;;;;;21.30;43.60;;;;;;485229;246;2148;-44
2022/11/19 02:09:56;;;;;;;;;;;21.30;43.60;;;;;;485317;246;1213;-44
2022/11/19 02:11:57;;;;;;;;;;;21.30;43.60;;;;;;485461;246;1321;-42
2022/11/19 02:13:59;;;;;;;;;;;21.30;43.60;;;;;;485312;246;1372;-44
2022/11/19 02:16:00;;;;;;;;;;;21.30;43.60;;;;;;485206;246;1261;-44
2022/11/19 02:18:02;;;;;;;;;;;21.30;43.50;;;;;;485709;246;1433;-44
2022/11/19 02:20:03;;;;;;;;;;;21.30;43.50;;;;;;485422;246;1424;-43
2022/11/19 02:22:06;;;;;;;;;;;21.30;43.60;;;;;;485271;246;1266;-44
2022/11/19 02:24:07;;;;;;;;;;;21.30;43.50;;;;;;485297;246;1636;-44
2022/11/19 02:26:08;;;;;;;;;;;21.30;43.50;;;;;;485275;246;1284;-44
2022/11/19 02:28:10;;;;;;;;;;;21.30;43.50;;;;;;485613;246;2123;-44
2022/11/19 02:30:11;;;;;;;;;;;21.30;43.50;;;;;;485210;246;1712;-44
2022/11/19 02:32:13;;;;;;;;;;;21.30;43.50;;;;;;485180;246;1287;-44
2022/11/19 02:34:15;;;;;;;;;;;21.30;43.60;;;;;;485230;246;1313;-44
2022/11/19 02:36:16;;;;;;;;;;;21.30;43.60;;;;;;485255;246;1221;-41
2022/11/19 02:38:18;;;;;;;;;;;21.30;43.60;;;;;;485236;246;1263;-45
2022/11/19 02:40:19;;;;;;;;;;;21.30;43.60;;;;;;485311;246;1309;-44
2022/11/19 02:42:21;;;;;;;;;;;21.30;43.60;;;;;;485356;246;1260;-42
2022/11/19 02:46:43;;;;;;;;;;;21.30;43.60;;;;;;485528;246;2168;-43
2022/11/19 02:48:44;;;;;;;;;;;21.30;43.60;;;;;;485378;246;1827;-44
2022/11/19 02:50:46;;;;;;;;;;;21.30;43.60;;;;;;485295;246;1244;-44
2022/11/19 02:52:47;;;;;;;;;;;21.30;43.70;;;;;;485744;246;1352;-44
2022/11/19 02:54:49;;;;;;;;;;;21.30;43.60;;;;;;485285;246;1326;-43
2022/11/19 02:56:51;;;;;;;;;;;21.30;43.60;;;;;;485749;246;1206;-44
2022/11/19 03:05:50;;;;;;;;;;;21.30;43.60;;;;;;485208;246;1781;-44
2022/11/19 03:07:52;;;;;;;;;;;21.30;43.60;;;;;;485431;246;2187;-44
2022/11/19 03:09:53;;;;;;;;;;;21.30;43.60;;;;;;485342;246;1254;-42
2022/11/19 03:11:55;;;;;;;;;;;21.30;43.60;;;;;;485586;246;1611;-44
2022/11/19 03:18:35;;;;;;;;;;;21.30;43.60;;;;;;485251;246;1332;-42
2022/11/19 03:20:37;;;;;;;;;;;21.30;43.60;;;;;;485283;246;1229;-44
2022/11/19 03:22:38;;;;;;;;;;;21.30;43.60;;;;;;485285;246;1435;-41
2022/11/19 03:24:39;;;;;;;;;;;21.30;43.60;;;;;;485285;246;1716;-44
2022/11/19 03:26:41;;;;;;;;;;;21.30;43.60;;;;;;485284;246;1393;-44
2022/11/19 03:28:42;;;;;;;;;;;21.30;43.60;;;;;;485582;246;2190;-44
2022/11/19 03:30:43;;;;;;;;;;;21.30;43.60;;;;;;485298;246;1250;-41
2022/11/19 03:32:45;;;;;;;;;;;21.30;43.60;;;;;;485292;246;1178;-41
2022/11/19 03:34:47;;;;;;;;;;;21.30;43.60;;;;;;485571;246;1513;-44
2022/11/19 03:36:48;;;;;;;;;;;21.30;43.60;;;;;;485577;246;1192;-44
2022/11/19 03:38:50;;;;;;;;;;;21.30;43.60;;;;;;485353;243;1257;-44
2022/11/19 03:40:51;;;;;;;;;;;21.30;43.60;;;;;;485506;246;1639;-44
2022/11/19 03:42:52;;;;;;;;;;;21.30;43.50;;;;;;485273;246;1250;-44
2022/11/19 03:44:54;;;;;;;;;;;21.30;43.60;;;;;;485060;242;1694;-44
2022/11/19 03:46:56;;;;;;;;;;;21.30;43.60;;;;;;485217;246;2148;-44
2022/11/19 03:48:57;;;;;;;;;;;21.30;43.60;;;;;;485211;246;1816;-44
2022/11/19 03:50:59;;;;;;;;;;;21.30;43.60;;;;;;485599;246;1571;-44
2022/11/19 03:53:00;;;;;;;;;;;21.30;43.60;;;;;;485368;246;1572;-44
2022/11/19 03:55:02;;;;;;;;;;;21.30;43.60;;;;;;485173;242;1637;-41
2022/11/19 03:57:03;;;;;;;;;;;21.30;43.60;;;;;;485572;246;1335;-43
2022/11/19 03:59:05;;;;;;;;;;;21.30;43.60;;;;;;484692;246;2221;-44
2022/11/19 04:01:06;;;;;;;;;;;21.30;43.60;;;;;;485111;246;1697;-44
2022/11/19 04:03:08;;;;;;;;;;;21.30;43.60;;;;;;485417;246;1670;-44
2022/11/19 04:05:09;;;;;;;;;;;21.30;43.60;;;;;;485355;246;1229;-44
2022/11/19 04:07:11;;;;;;;;;;;21.30;43.60;;;;;;485197;244;2211;-44
2022/11/19 04:09:12;;;;;;;;;;;21.30;43.60;;;;;;485563;246;1670;-44
2022/11/19 04:11:14;;;;;;;;;;;21.30;43.60;;;;;;485199;246;1266;-44
2022/11/19 04:13:15;;;;;;;;;;;21.30;43.60;;;;;;485339;246;1372;-41
2022/11/19 04:15:16;;;;;;;;;;;21.30;43.70;;;;;;485202;246;1227;-44
2022/11/19 04:17:18;;;;;;;;;;;21.30;43.60;;;;;;485235;246;1607;-44
2022/11/19 04:19:19;;;;;;;;;;;21.30;43.60;;;;;;485229;245;1895;-43
2022/11/19 04:21:20;;;;;;;;;;;21.30;43.60;;;;;;485165;246;1331;-44
2022/11/19 04:23:22;;;;;;;;;;;21.30;43.60;;;;;;485359;246;1723;-44
2022/11/19 04:25:24;;;;;;;;;;;21.30;43.60;;;;;;485422;246;1338;-44
2022/11/19 04:27:25;;;;;;;;;;;21.30;43.60;;;;;;485167;246;2188;-44
2022/11/19 04:29:27;;;;;;;;;;;21.30;43.60;;;;;;485074;246;1318;-44
2022/11/19 04:31:28;;;;;;;;;;;21.30;43.60;;;;;;485297;246;1373;-41
2022/11/19 04:33:29;;;;;;;;;;;21.30;43.60;;;;;;485136;246;1294;-44
2022/11/19 04:35:31;;;;;;;;;;;21.30;43.60;;;;;;485330;246;1604;-44
2022/11/19 04:37:33;;;;;;;;;;;21.30;43.60;;;;;;485462;246;1298;-44
2022/11/19 04:39:34;;;;;;;;;;;21.30;43.60;;;;;;485543;246;1528;-44
2022/11/19 04:41:36;;;;;;;;;;;21.30;43.60;;;;;;485248;246;1670;-43
2022/11/19 04:43:37;;;;;;;;;;;21.30;43.60;;;;;;485386;246;1542;-44
2022/11/19 04:45:38;;;;;;;;;;;21.30;43.60;;;;;;485225;246;1235;-44
2022/11/19 04:47:40;;;;;;;;;;;21.30;43.60;;;;;;485288;246;2167;-44
2022/11/19 04:49:41;;;;;;;;;;;21.30;43.70;;;;;;485158;246;1278;-44
2022/11/19 04:51:43;;;;;;;;;;;21.30;43.60;;;;;;485203;246;1210;-42
2022/11/19 04:53:44;;;;;;;;;;;21.30;43.70;;;;;;485195;246;1395;-44
2022/11/19 04:55:45;;;;;;;;;;;21.30;43.60;;;;;;485441;246;1344;-41
2022/11/19 04:57:50;;;;;;;;;;;21.30;43.70;;;;;;485272;242;1848;-44
2022/11/19 04:59:49;;;;;;;;;;;21.30;43.70;;;;;;484968;246;2029;-44
2022/11/19 05:01:50;;;;;;;;;;;21.30;43.70;;;;;;485412;246;1471;-43
2022/11/19 05:03:52;;;;;;;;;;;21.40;43.40;;;;;;485286;246;1716;-45
2022/11/19 05:05:53;;;;;;;;;;;21.60;43.00;;;;;;485552;246;1679;-43
2022/11/19 05:07:55;;;;;;;;;;;21.80;42.60;;;;;;485599;246;2155;-44
2022/11/19 05:09:56;;;;;;;;;;;21.90;42.20;;;;;;485666;246;1273;-45
2022/11/19 05:11:58;;;;;;;;;;;22.10;42.00;;;;;;485602;246;1205;-45
2022/11/19 05:13:59;;;;;;;;;;;22.20;41.70;;;;;;485274;246;1248;-44
2022/11/19 05:16:00;;;;;;;;;;;22.20;41.80;;;;;;485491;246;1318;-41
2022/11/19 05:18:02;;;;;;;;;;;22.20;41.80;;;;;;485593;246;1210;-44
2022/11/19 05:20:03;;;;;;;;;;;22.10;42.00;;;;;;485311;246;1333;-44
2022/11/19 05:22:05;;;;;;;;;;;21.90;42.30;;;;;;485316;246;1339;-41
2022/11/19 05:24:07;;;;;;;;;;;21.80;42.50;;;;;;485470;246;1353;-43
2022/11/19 05:26:08;;;;;;;;;;;21.80;42.70;;;;;;485428;242;1299;-43
2022/11/19 05:28:10;;;;;;;;;;;21.70;42.80;;;;;;485149;246;2187;-43
2022/11/19 05:30:12;;;;;;;;;;;21.60;42.90;;;;;;485269;246;1424;-44
2022/11/19 05:32:13;;;;;;;;;;;21.60;43.00;;;;;;485279;246;1256;-44
2022/11/19 05:34:15;;;;;;;;;;;21.60;43.10;;;;;;485154;246;1599;-44
2022/11/19 05:36:16;;;;;;;;;;;21.60;43.20;;;;;;485212;246;1439;-44
2022/11/19 05:38:17;;;;;;;;;;;21.50;43.20;;;;;;485157;246;1313;-44
2022/11/19 05:40:19;;;;;;;;;;;21.50;43.20;;;;;;485380;246;1231;-44
2022/11/19 05:42:20;;;;;;;;;;;21.50;43.30;;;;;;485269;242;1695;-44
2022/11/19 05:44:21;;;;;;;;;;;21.50;43.30;;;;;;485139;246;1755;-43
2022/11/19 05:46:23;;;;;;;;;;;21.50;43.30;;;;;;485195;246;1241;-44
2022/11/19 05:48:24;;;;;;;;;;;21.40;43.30;;;;;;484928;246;2160;-44
2022/11/19 05:50:26;;;;;;;;;;;21.50;43.30;;;;;;485243;242;1254;-44
2022/11/19 05:52:27;;;;;;;;;;;21.50;43.40;;;;;;485559;243;1248;-41
2022/11/19 05:54:28;;;;;;;;;;;21.40;43.40;;;;;;485236;246;2361;-44
2022/11/19 05:56:30;;;;;;;;;;;21.40;43.40;;;;;;485317;246;1271;-44
2022/11/19 05:58:31;;;;;;;;;;;21.40;43.40;;;;;;485638;246;1409;-44
2022/11/19 06:00:33;;;;;;;;;;;21.40;43.30;;;;;;485404;246;1340;-44
2022/11/19 06:02:34;;;;;;;;;;;21.40;43.40;;;;;;485328;246;1286;-44
2022/11/19 06:04:36;;;;;;;;;;;21.40;43.50;;;;;;485674;246;1128;-43
2022/11/19 06:06:37;;;;;;;;;;;21.40;43.40;;;;;;485265;246;1690;-41
2022/11/19 06:08:39;;;;;;;;;;;21.30;43.50;;;;;;485574;246;2173;-43
2022/11/19 06:10:40;;;;;;;;;;;21.40;43.50;;;;;;485359;246;1388;-40
2022/11/19 06:12:42;;;;;;;;;;;21.30;43.50;;;;;;485663;246;1264;-44
2022/11/19 06:14:44;;;;;;;;;;;21.30;43.50;;;;;;485519;246;1351;-43
2022/11/19 06:16:45;;;;;;;;;;;21.30;43.50;;;;;;485321;246;1968;-40
2022/11/19 06:18:47;;;;;;;;;;;21.30;43.50;;;;;;485463;246;1610;-44
2022/11/19 06:20:48;;;;;;;;;;;21.30;43.50;;;;;;485718;246;1260;-42
2022/11/19 06:22:50;;;;;;;;;;;21.40;43.60;;;;;;485444;246;1363;-44
2022/11/19 06:24:51;;;;;;;;;;;21.30;43.50;;;;;;485248;246;1849;-44
2022/11/19 06:26:53;;;;;;;;;;;21.30;43.50;;;;;;485442;246;1454;-44
2022/11/19 06:28:54;;;;;;;;;;;21.40;43.50;;;;;;485475;242;2152;-44
2022/11/19 06:30:56;;;;;;;;;;;21.30;43.50;;;;;;485414;246;2980;-44
2022/11/19 06:32:57;;;;;;;;;;;21.40;43.50;;;;;;485455;246;1273;-44
2022/11/19 06:35:00;;;;;;;;;;;21.30;43.50;;;;;;485730;246;1196;-44
2022/11/19 06:37:01;;;;;;;;;;;21.30;43.50;;;;;;485574;246;1207;-44
2022/11/19 06:39:03;;;;;;;;;;;21.30;43.50;;;;;;485385;246;1302;-42
2022/11/19 06:41:04;;;;;;;;;;;21.30;43.60;;;;;;485326;246;1270;-44
2022/11/19 06:43:05;;;;;;;;;;;21.30;43.60;;;;;;485285;246;1420;-44
2022/11/19 06:45:06;;;;;;;;;;;21.30;43.60;;;;;;485335;246;3201;-44
2022/11/19 06:47:08;;;;;;;;;;;21.30;43.50;;;;;;485722;246;1177;-42
2022/11/19 06:49:09;;;;;;;;;;;21.30;43.60;;;;;;485325;243;2199;-44
2022/11/19 06:51:11;;;;;;;;;;;21.30;43.60;;;;;;485236;246;2546;-41
2022/11/19 06:53:13;;;;;;;;;;;21.30;43.60;;;;;;485307;246;1262;-44
2022/11/19 06:55:15;;;;;;;;;;;21.30;43.70;;;;;;485507;246;1567;-43
2022/11/19 06:57:16;;;;;;;;;;;21.30;43.60;;;;;;485452;242;1868;-44
2022/11/19 06:59:19;;;;;;;;;;;21.30;43.70;;;;;;485460;246;1580;-41
2022/11/19 07:01:20;;;;;;;;;;;21.30;43.60;;;;;;485789;246;1441;-44
2022/11/19 07:03:26;;;;;;;;;;;21.30;43.60;;;;;;485787;246;1398;-40
2022/11/19 07:05:29;;;;;;;;;;;21.30;43.60;;;;;;485344;246;1354;-44
2022/11/19 07:07:30;;;;;;;;;;;21.30;43.60;;;;;;485330;246;2122;-44
2022/11/19 07:09:32;;;;;;;;;;;21.30;43.60;;;;;;485762;246;2159;-44
2022/11/19 07:11:34;;;;;;;;;;;21.30;43.60;;;;;;485437;246;1259;-44
2022/11/19 07:15:55;;;;;;;;;;;21.30;43.70;;;;;;485742;246;1252;-44
2022/11/19 07:17:57;;;;;;;;;;;21.30;43.70;;;;;;485384;246;1205;-44
2022/11/19 07:19:58;;;;;;;;;;;21.20;43.60;;;;;;485617;242;1366;-43
2022/11/19 07:21:59;;;;;;;;;;;21.30;43.70;;;;;;485562;246;1215;-44
2022/11/19 07:24:01;;;;;;;;;;;21.30;43.70;;;;;;485758;246;1600;-44
2022/11/19 07:26:02;;;;;;;;;;;21.30;43.70;;;;;;485310;246;1270;-44
2022/11/19 07:28:04;;;;;;;;;;;21.30;43.70;;;;;;485744;246;1275;-44
2022/11/19 07:30:06;;;;;;;;;;;21.30;43.60;;;;;;485380;246;2263;-41
2022/11/19 07:32:07;;;;;;;;;;;21.30;43.70;;;;;;485378;246;1838;-44
2022/11/19 07:34:09;;;;;;;;;;;21.30;43.70;;;;;;485350;246;1364;-43
2022/11/19 07:36:11;;;;;;;;;;;21.30;43.70;;;;;;485268;246;1312;-44
2022/11/19 07:38:12;;;;;;;;;;;21.30;43.70;;;;;;485316;246;1687;-44
2022/11/19 07:40:15;;;;;;;;;;;21.30;43.70;;;;;;485374;246;1273;-42
2022/11/19 07:44:34;;;;;;;;;;;21.30;43.70;;;;;;485580;246;1268;-44
2022/11/19 07:46:36;;;;;;;;;;;21.30;43.70;;;;;;485461;246;1971;-44
2022/11/19 07:48:37;;;;;;;;;;;21.30;43.60;;;;;;485371;246;2171;-44
2022/11/19 07:50:39;;;;;;;;;;;21.30;43.70;;;;;;485244;246;1849;-43
2022/11/19 07:52:40;;;;;;;;;;;21.30;43.70;;;;;;485288;246;1929;-44
2022/11/19 07:54:41;;;;;;;;;;;21.30;43.70;;;;;;485300;246;1368;-41
2022/11/19 07:56:43;;;;;;;;;;;21.30;43.70;;;;;;485653;246;1314;-44
2022/11/19 07:58:44;;;;;;;;;;;21.30;43.70;;;;;;485432;246;1248;-43
2022/11/19 08:00:46;;;;;;;;;;;21.20;43.70;;;;;;485371;246;1236;-44
2022/11/19 08:02:49;;;;;;;;;;;21.30;43.70;;;;;;485298;246;1162;-44
2022/11/19 08:04:50;;;;;;;;;;;21.30;43.70;;;;;;485518;246;1758;-43
2022/11/19 08:06:52;;;;;;;;;;;21.20;43.70;;;;;;485603;246;1327;-44
2022/11/19 08:08:53;;;;;;;;;;;21.30;43.70;;;;;;485544;246;2176;-41
2022/11/19 08:10:54;;;;;;;;;;;21.20;43.70;;;;;;485711;246;1979;-44
2022/11/19 08:13:02;;;;;;;;;;;21.30;43.70;;;;;;485357;246;1282;-44
2022/11/19 08:15:03;;;;;;;;;;;21.30;43.70;;;;;;485243;246;1370;-42
2022/11/19 08:19:24;;;;;;;;;;;21.20;43.70;;;;;;485220;246;1959;-41
2022/11/19 08:21:25;;;;;;;;;;;21.20;43.70;;;;;;485472;246;1239;-41
2022/11/19 08:23:27;;;;;;;;;;;21.20;43.80;;;;;;485472;246;1317;-44
2022/11/19 08:25:29;;;;;;;;;;;21.20;43.70;;;;;;485289;246;1353;-44
2022/11/19 08:27:30;;;;;;;;;;;21.20;43.70;;;;;;485665;246;1182;-44
2022/11/19 08:29:32;;;;;;;;;;;21.20;43.70;;;;;;485469;246;2184;-44
2022/11/19 08:31:33;;;;;;;;;;;21.20;43.70;;;;;;485637;246;1170;-44
2022/11/19 08:33:35;;;;;;;;;;;21.20;43.70;;;;;;485426;246;1259;-44
2022/11/19 08:35:36;;;;;;;;;;;21.20;43.70;;;;;;485742;246;1275;-44
2022/11/19 08:37:37;;;;;;;;;;;21.20;43.70;;;;;;485287;246;1938;-44
2022/11/19 08:39:39;;;;;;;;;;;21.20;43.70;;;;;;485444;246;1274;-43
2022/11/19 08:44:00;;;;;;;;;;;21.20;43.70;;;;;;485275;246;2064;-44
2022/11/19 08:46:03;;;;;;;;;;;21.20;43.70;;;;;;485379;246;1445;-44
2022/11/19 08:48:04;;;;;;;;;;;21.20;43.70;;;;;;485238;242;1196;-44
2022/11/19 08:50:06;;;;;;;;;;;21.20;43.70;;;;;;485508;246;2159;-44
2022/11/19 08:52:07;;;;;;;;;;;21.20;43.70;;;;;;485413;246;1246;-44
2022/11/19 08:54:09;;;;;;;;;;;21.20;43.80;;;;;;485248;246;1390;-44
2022/11/19 08:56:10;;;;;;;;;;;21.20;43.70;;;;;;485715;246;1419;-44
2022/11/19 08:58:12;;;;;;;;;;;21.20;43.70;;;;;;485542;246;1323;-44
2022/11/19 09:00:13;;;;;;;;;;;21.20;43.80;;;;;;485292;246;1249;-44
2022/11/19 09:02:14;;;;;;;;;;;21.20;43.70;;;;;;485312;246;1393;-44
2022/11/19 09:04:16;;;;;;;;;;;21.20;43.70;;;;;;485380;246;1274;-41
2022/11/19 09:06:18;;;;;;;;;;;21.20;43.80;;;;;;485172;246;1262;-44
2022/11/19 09:08:18;;;;;;;;;;;21.20;43.80;;;;;;485314;246;2210;-44
2022/11/19 09:10:20;;;;;;;;;;;21.20;43.70;;;;;;485262;246;2164;-44
2022/11/19 09:12:22;;;;;;;;;;;21.20;43.70;;;;;;485517;246;1660;-41
2022/11/19 09:14:23;;;;;;;;;;;21.20;43.80;;;;;;485588;246;1528;-43
2022/11/19 09:16:25;;;;;;;;;;;21.20;43.70;;;;;;485279;246;1722;-44
2022/11/19 09:18:26;;;;;;;;;;;21.20;43.70;;;;;;485215;246;1985;-44
2022/11/19 09:20:27;;;;;;;;;;;21.20;43.70;;;;;;485211;242;1691;-43
2022/11/19 09:22:30;;;;;;;;;;;21.20;43.70;;;;;;485188;246;1335;-44
2022/11/19 09:24:30;;;;;;;;;;;21.20;43.70;;;;;;485125;246;1830;-44
2022/11/19 09:26:32;;;;;;;;;;;21.20;43.70;;;;;;485303;246;1289;-41
2022/11/19 09:28:33;;;;;;;;;;;21.20;43.80;;;;;;485132;246;1750;-44
2022/11/19 09:30:35;;;;;;;;;;;21.20;43.80;;;;;;485165;246;2199;-45
2022/11/19 09:32:36;;;;;;;;;;;21.20;43.80;;;;;;485187;246;1619;-44
2022/11/19 09:34:39;;;;;;;;;;;21.20;43.80;;;;;;485365;246;1323;-44
2022/11/19 09:36:39;;;;;;;;;;;21.20;43.70;;;;;;485055;246;2101;-44
2022/11/19 09:38:40;;;;;;;;;;;21.20;43.80;;;;;;485139;246;1291;-43
2022/11/19 09:40:42;;;;;;;;;;;21.20;43.80;;;;;;485363;246;1261;-44
2022/11/19 09:42:43;;;;;;;;;;;21.20;43.80;;;;;;485398;246;1393;-44
2022/11/19 09:44:44;;;;;;;;;;;21.20;43.80;;;;;;485236;246;1418;-42
2022/11/19 09:46:46;;;;;;;;;;;21.20;43.80;;;;;;485239;246;1611;-43
2022/11/19 09:48:47;;;;;;;;;;;21.20;43.80;;;;;;485231;246;1900;-43
2022/11/19 09:50:49;;;;;;;;;;;21.20;43.80;;;;;;485182;246;2199;-44
2022/11/19 09:52:50;;;;;;;;;;;21.10;43.80;;;;;;485519;243;1261;-42
2022/11/19 09:54:52;;;;;;;;;;;21.20;43.80;;;;;;485232;246;1478;-41
2022/11/19 09:56:53;;;;;;;;;;;21.20;43.80;;;;;;485242;246;1302;-44
2022/11/19 09:58:54;;;;;;;;;;;21.10;43.80;;;;;;485223;246;1627;-44
2022/11/19 10:00:58;;;;;;;;;;;21.10;43.80;;;;;;485334;246;1351;-43
2022/11/19 10:02:58;;;;;;;;;;;21.20;43.80;;;;;;485059;246;1480;-44
2022/11/19 10:04:59;;;;;;;;;;;21.20;43.80;;;;;;485234;246;1658;-44
2022/11/19 10:07:01;;;;;;;;;;;21.20;43.70;;;;;;485324;246;1701;-44
2022/11/19 10:09:02;;;;;;;;;;;21.20;43.80;;;;;;485338;246;2167;-41
2022/11/19 10:11:03;;;;;;;;;;;21.20;43.80;;;;;;485352;246;1770;-41
2022/11/19 10:13:11;;;;;;;;;;;21.20;43.80;;;;;;485302;246;1507;-44
2022/11/19 10:15:12;;;;;;;;;;;21.20;43.70;;;;;;485309;246;1192;-41
2022/11/19 10:17:14;;;;;;;;;;;21.20;43.80;;;;;;485313;246;1902;-44
2022/11/19 10:19:15;;;;;;;;;;;21.20;43.80;;;;;;485245;246;2061;-43
2022/11/19 10:21:16;;;;;;;;;;;21.20;43.80;;;;;;485328;246;1575;-44
2022/11/19 10:23:18;;;;;;;;;;;21.20;43.80;;;;;;485439;246;1251;-44
2022/11/19 10:25:19;;;;;;;;;;;21.20;43.70;;;;;;485266;246;1487;-44
2022/11/19 10:27:21;;;;;;;;;;;21.20;43.80;;;;;;485513;246;1388;-44
2022/11/19 10:29:22;;;;;;;;;;;21.20;43.70;;;;;;485192;246;2184;-44
2022/11/19 10:31:24;;;;;;;;;;;21.20;43.70;;;;;;485254;246;1817;-44
2022/11/19 10:33:25;;;;;;;;;;;21.20;43.80;;;;;;485342;246;1689;-41
2022/11/19 10:35:26;;;;;;;;;;;21.10;43.70;;;;;;485454;246;1578;-42
2022/11/19 10:37:28;;;;;;;;;;;21.10;43.80;;;;;;485201;246;1330;-43
2022/11/19 10:39:29;;;;;;;;;;;21.10;43.70;;;;;;485235;246;1549;-44
2022/11/19 10:41:31;;;;;;;;;;;21.20;43.80;;;;;;485457;246;1684;-44
2022/11/19 10:43:32;;;;;;;;;;;21.20;43.70;;;;;;485430;246;2020;-42
2022/11/19 10:45:34;;;;;;;;;;;21.10;43.80;;;;;;485219;246;1692;-44
2022/11/19 10:47:35;;;;;;;;;;;21.10;43.80;;;;;;485332;246;1707;-44
2022/11/19 10:49:36;;;;;;;;;;;21.20;43.90;;;;;;485327;246;2176;-44
2022/11/19 10:51:37;;;;;;;;;;;21.10;43.80;;;;;;485285;246;1442;-44
2022/11/19 10:53:39;;;;;;;;;;;21.10;43.80;;;;;;485413;246;1507;-44
2022/11/19 10:55:41;;;;;;;;;;;21.10;43.80;;;;;;485386;246;1333;-44
2022/11/19 10:57:42;;;;;;;;;;;21.10;43.80;;;;;;485164;246;1697;-44
2022/11/19 10:59:43;;;;;;;;;;;21.10;43.80;;;;;;485341;246;1959;-42
2022/11/19 11:01:47;;;;;;;;;;;21.10;43.80;;;;;;485208;246;1735;-44
2022/11/19 11:03:49;;;;;;;;;;;21.10;43.80;;;;;;485189;246;1312;-44
2022/11/19 11:05:50;;;;;;;;;;;21.10;43.80;;;;;;485292;243;1298;-44
2022/11/19 11:07:52;;;;;;;;;;;21.10;43.80;;;;;;485511;246;1264;-44
2022/11/19 11:09:53;;;;;;;;;;;21.10;43.80;;;;;;485399;246;2136;-44
2022/11/19 11:16:33;;;;;;;;;;;21.10;43.80;;;;;;485606;246;1445;-44
2022/11/19 11:18:35;;;;;;;;;;;21.10;43.80;;;;;;485260;246;1290;-44
2022/11/19 11:20:36;;;;;;;;;;;21.10;43.80;;;;;;485301;246;1257;-43
2022/11/19 11:22:38;;;;;;;;;;;21.10;43.80;;;;;;485482;246;1854;-44
2022/11/19 11:24:39;;;;;;;;;;;21.10;43.80;;;;;;485646;246;1274;-44
2022/11/19 11:26:40;;;;;;;;;;;21.10;43.80;;;;;;485296;246;2763;-43
2022/11/19 11:28:42;;;;;;;;;;;21.10;43.90;;;;;;485230;246;1467;-44
2022/11/19 11:30:43;;;;;;;;;;;21.10;43.90;;;;;;485384;246;2184;-44
2022/11/19 11:32:46;;;;;;;;;;;21.10;43.80;;;;;;485307;246;1284;-44
2022/11/19 11:34:46;;;;;;;;;;;21.10;43.80;;;;;;485317;246;2092;-44
2022/11/19 11:36:47;;;;;;;;;;;21.10;43.80;;;;;;485274;246;1262;-44
2022/11/19 11:38:49;;;;;;;;;;;21.10;43.90;;;;;;485368;246;1347;-44
2022/11/19 11:40:50;;;;;;;;;;;21.10;43.80;;;;;;485275;246;1969;-44
2022/11/19 11:42:52;;;;;;;;;;;21.10;43.80;;;;;;485787;246;1266;-44
2022/11/19 11:44:53;;;;;;;;;;;21.10;43.80;;;;;;485289;246;1380;-41
2022/11/19 11:46:55;;;;;;;;;;;21.10;43.80;;;;;;485333;246;1362;-44
2022/11/19 11:48:56;;;;;;;;;;;21.10;43.80;;;;;;485299;246;1214;-44
2022/11/19 11:50:58;;;;;;;;;;;21.10;43.80;;;;;;485220;246;2203;-44
2022/11/19 11:52:59;;;;;;;;;;;21.10;43.80;;;;;;485413;246;1377;-44
2022/11/19 11:55:01;;;;;;;;;;;21.10;43.80;;;;;;485252;242;1396;-44
2022/11/19 11:57:02;;;;;;;;;;;21.10;43.80;;;;;;485310;246;1686;-43
2022/11/19 11:59:04;;;;;;;;;;;21.10;43.80;;;;;;485385;242;1218;-44
2022/11/19 12:01:05;;;;;;;;;;;21.10;43.80;;;;;;485255;246;1193;-44
2022/11/19 12:03:07;;;;;;;;;;;21.10;43.80;;;;;;485269;246;1221;-41
2022/11/19 12:05:09;;;;;;;;;;;21.10;43.80;;;;;;485365;246;1472;-44
2022/11/19 12:07:10;;;;;;;;;;;21.10;43.80;;;;;;485410;246;1714;-44
2022/11/19 12:09:11;;;;;;;;;;;21.10;43.80;;;;;;485631;246;1675;-44
2022/11/19 12:11:13;;;;;;;;;;;21.10;43.90;;;;;;485251;246;2687;-44
2022/11/19 12:13:14;;;;;;;;;;;21.10;43.90;;;;;;485293;246;1220;-44
2022/11/19 12:15:15;;;;;;;;;;;21.10;43.90;;;;;;485491;246;1210;-44
2022/11/19 12:17:18;;;;;;;;;;;21.10;43.90;;;;;;485343;246;1204;-41
2022/11/19 12:19:19;;;;;;;;;;;21.10;43.90;;;;;;485501;246;1285;-44
2022/11/19 12:21:23;;;;;;;;;;;21.10;43.90;;;;;;485336;246;1228;-41
2022/11/19 12:23:24;;;;;;;;;;;21.10;43.90;;;;;;485259;246;3998;-44
2022/11/19 12:25:25;;;;;;;;;;;21.10;43.90;;;;;;485611;246;1195;-44
2022/11/19 12:27:27;;;;;;;;;;;21.10;43.90;;;;;;485243;246;1542;-44
2022/11/19 12:29:28;;;;;;;;;;;21.10;43.90;;;;;;485243;246;1793;-44
2022/11/19 12:31:29;;;;;;;;;;;21.10;43.90;;;;;;485251;246;2155;-42